aviador You're here:

LQSA Decoded Metar

SARAJEVO in BOSNIA-HERCEGOVINA
Report Time2018-02-20 13:30:00
UTC Time2018-02-20 13:51:58
Flight Rules ifr IFR
Wind300° at 03 kt
W.Decomp.*RWY 30: 3.0 kt HW 0.1 kt LCW
W.Rank300° ranks 2
Current wind is below 300° avg. (4.9)
Visibility4000 m
Phenomena:Light Snow
Mist
Clouds:Few 005 Hf
Scattered 012 Hf
Broken 030 Hf
Expected CloudBase > 400 ft AGL from Temp-Dew spread
Ceiling3,000 ft
Temp02°C (ISA -10)
Dew Point01°C (93% RH)
AAT-0.9°C
QNH1007 hPa
Density Alt807 ft
Elevation1,677 ft
Report Wrong Elevation
Raw Report
LQSA 201330Z 30003KT 4000 -SN BR FEW005 SCT012 BKN030 02/01 Q1007
NOSIG=

Extra information for LQSA:More info

Metar Taf Metar & Taf Last 4 Metars F.Rules Stats Wind Profile Meteogram Temp Stats Airport Information Weather charts Add Link Nearby VenuesMetar ALERT Operation Metar Decoded Social comments